Nickajack Observed Data For Previous 48 Hours

Caption
Day and Hour Reservoir Elevation (behind dam)* Tailwater Elevation (below dam)* Average Hourly Discharge*
1/19/2019 1 AM CST 632.28 602.24 80,897
1/19/2019 2 AM CST 632.24 602.16 81,049
1/19/2019 3 AM CST 632.20 602.08 81,201
1/19/2019 4 AM CST 632.11 602.04 81,174
1/19/2019 5 AM CST 632.04 601.91 80,491
1/19/2019 6 AM CST 632.03 601.84 78,982
1/19/2019 7 AM CST 631.97 601.80 79,031
1/19/2019 8 AM CST 632.03 601.80 79,003
1/19/2019 9 AM CST 632.11 601.78 79,206
1/19/2019 10 AM CST 632.23 601.80 79,272
1/19/2019 11 AM CST 632.40 601.82 79,477
1/19/2019 12 PM CST 632.58 601.85 79,583
1/19/2019 1 PM CST 632.57 602.43 88,550
1/19/2019 2 PM CST 632.62 602.62 89,512
1/19/2019 3 PM CST 632.59 603.24 96,115
1/19/2019 4 PM CST 632.58 603.50 97,719
1/19/2019 5 PM CST 632.58 603.68 97,541
1/19/2019 6 PM CST 632.65 603.82 97,443
1/19/2019 7 PM CST 632.74 603.95 97,481
1/19/2019 8 PM CST 632.85 604.06 97,504
1/19/2019 9 PM CST 632.88 604.18 97,446
1/19/2019 10 PM CST 632.96 604.28 97,444
1/19/2019 11 PM CST 632.99 604.34 97,472
1/20/2019 12 AM CST 633.01 604.42 97,445
1/20/2019 1 AM CST 633.04 604.47 97,296
1/20/2019 2 AM CST 632.98 604.53 97,210
1/20/2019 3 AM CST 632.93 604.58 96,946
1/20/2019 4 AM CST 632.91 604.62 96,843
1/20/2019 5 AM CST 632.88 604.68 96,743
1/20/2019 6 AM CST 632.85 604.70 96,552
1/20/2019 7 AM CST 632.82 604.73 96,620
1/20/2019 8 AM CST 632.79 605.31 108,143
1/20/2019 9 AM CST 632.82 605.46 108,424
1/20/2019 10 AM CST 632.89 605.56 108,440
1/20/2019 11 AM CST 632.83 605.90 110,913
1/20/2019 12 PM CST 632.75 606.20 120,429
1/20/2019 1 PM CST 632.56 606.34 119,970
1/20/2019 2 PM CST 632.35 606.41 119,522
1/20/2019 3 PM CST 632.10 606.46 118,900
1/20/2019 4 PM CST 632.00 606.06 112,335
1/20/2019 5 PM CST 631.94 605.93 106,709
1/20/2019 6 PM CST 632.00 605.88 106,880
1/20/2019 7 PM CST 632.25 605.86 107,207
1/20/2019 8 PM CST 632.42 606.27 113,729
1/20/2019 9 PM CST 632.56 606.43 119,598
1/20/2019 10 PM CST 632.52 606.80 123,655
1/20/2019 11 PM CST 632.49 607.00 129,345
1/21/2019 12 AM CST 632.46 607.09 129,084
1/21/2019 1 AM CST 632.43 607.15 128,937
1/21/2019 2 AM CST 632.42 607.20 128,727
1/21/2019 3 AM CST 632.47 607.23 128,672
1/21/2019 4 AM CST 632.37 607.54 134,484

Elevations are in feet above sea level. Discharges are in cubic feet per second and are reported at the end of the hour.